ePrivacy and GPDR Cookie Consent by Cookie Consent
EmailTwitter


Observations de surface / France / LFPO (07149)

Régions: Québec | Canada | États-Unis | Europe | France | UK | Ailleurs
Station
Affichage
Infos & localisation pour LFPO (07149) | Aide pour décoder les METARs

Observations prises le 2022-06-27 à 15H30 UTC à PARIS/ORLY, FR (LFPO)

Température: 24.0 Celsius

Point de rosée: 6.0 Celsius

Humidité relative: 31%

Indice Humidex 24.

Vents: Sud-ouest à 19 km/h ou 10 noeuds.

Pression au niveau moyen de la mer: 101.90 kilopascals.

Observation METAR:

LFPO 271530Z 24010KT 190V290 CAVOK 24/06 Q1019 NOSIG=